Time;durP1;ratioP1;P1;durP2;ratioP2;P2;SDS_P1;SDS_P2;PMS_P1;PMS_P2;Temp;Humidity;BMP_temperature;BMP_pressure;BME280_temperature;BME280_humidity;BME280_pressure;Samples;Min_cycle;Max_cycle;Signal;HPM_P1;HPM_P2
2022/02/16 00:00:54;;;;;;;8.15;2.45;;;;;;;;;;4975753;28;20065;-74
2022/02/16 00:03:22;;;;;;;5.70;2.55;;;;;;;;;;4958456;28;20050;-72
2022/02/16 00:05:52;;;;;;;9.20;2.80;;;;;;;;;;4958530;28;20047;-70
2022/02/16 00:08:24;;;;;;;6.47;2.30;;;;;;;;;;4975833;28;20529;-69
2022/02/16 00:10:53;;;;;;;5.15;2.63;;;;;;;;;;4958911;28;20043;-74
2022/02/16 00:13:21;;;;;;;11.20;2.80;;;;;;;;;;4975603;28;20406;-69
2022/02/16 00:15:48;;;;;;;6.57;2.80;;;;;;;;;;4958203;28;20047;-71
2022/02/16 00:18:16;;;;;;;7.03;2.75;;;;;;;;;;4942641;28;20509;-72
2022/02/16 00:20:44;;;;;;;2.63;1.55;;;;;;;;;;4958296;28;20043;-72
2022/02/16 00:23:11;;;;;;;4.13;1.60;;;;;;;;;;4975296;28;20097;-69
2022/02/16 00:25:39;;;;;;;13.43;2.92;;;;;;;;;;4975724;28;20039;-73
2022/02/16 00:28:07;;;;;;;7.25;2.45;;;;;;;;;;4975273;28;20041;-71
2022/02/16 00:30:34;;;;;;;6.47;2.80;;;;;;;;;;4975645;28;20043;-69
2022/02/16 00:33:02;;;;;;;11.88;2.80;;;;;;;;;;4958043;28;20054;-69
2022/02/16 00:35:34;;;;;;;12.18;3.00;;;;;;;;;;4974888;28;20049;-70
2022/02/16 00:38:01;;;;;;;12.30;2.45;;;;;;;;;;4975467;28;20077;-71
2022/02/16 00:40:29;;;;;;;8.70;2.65;;;;;;;;;;4957831;28;20384;-71
2022/02/16 00:42:57;;;;;;;8.15;2.50;;;;;;;;;;4975384;28;20115;-72
2022/02/16 00:45:25;;;;;;;8.80;2.08;;;;;;;;;;4942299;28;20061;-72
2022/02/16 00:47:54;;;;;;;8.13;1.98;;;;;;;;;;4974906;28;20078;-71
2022/02/16 00:50:21;;;;;;;12.50;2.75;;;;;;;;;;4975505;28;20117;-71
2022/02/16 00:52:49;;;;;;;5.38;1.83;;;;;;;;;;4957855;28;20073;-69
2022/02/16 00:55:16;;;;;;;11.52;1.92;;;;;;;;;;4967122;28;20510;-69
2022/02/16 00:57:45;;;;;;;10.82;1.67;;;;;;;;;;4957478;28;20053;-72
2022/02/16 01:00:13;;;;;;;7.00;1.70;;;;;;;;;;4957345;28;20101;-70
2022/02/16 01:02:47;;;;;;;9.20;1.40;;;;;;;;;;4957605;28;20049;-71
2022/02/16 01:05:14;;;;;;;2.92;1.27;;;;;;;;;;4974609;28;20494;-71
2022/02/16 01:07:43;;;;;;;3.70;0.98;;;;;;;;;;4966011;28;20545;-74
2022/02/16 01:10:13;;;;;;;9.77;1.60;;;;;;;;;;4976693;28;20058;-69
2022/02/16 01:12:46;;;;;;;;;;;;;;;;;;4977226;28;20046;-69
2022/02/16 01:15:15;;;;;;;5.88;1.35;;;;;;;;;;4976409;28;19922;-69
2022/02/16 01:17:44;;;;;;;4.20;1.90;;;;;;;;;;4976729;28;20073;-74
2022/02/16 01:20:23;;;;;;;7.22;2.03;;;;;;;;;;4968947;28;20150;-71
2022/02/16 01:23:05;;;;;;;10.83;2.37;;;;;;;;;;4976050;28;20074;-74
2022/02/16 01:25:33;;;;;;;6.47;1.65;;;;;;;;;;4994301;28;20073;-74
2022/02/16 01:28:08;;;;;;;7.90;2.25;;;;;;;;;;4967688;28;20071;-74
2022/02/16 01:30:39;;;;;;;7.35;2.70;;;;;;;;;;4965597;28;20552;-71
2022/02/16 01:33:15;;;;;;;5.13;2.42;;;;;;;;;;4976242;28;20054;-72
2022/02/16 01:35:47;;;;;;;5.67;2.30;;;;;;;;;;4975603;28;20453;-69
2022/02/16 01:38:15;;;;;;;5.30;2.05;;;;;;;;;;4976282;28;20062;-72
2022/02/16 01:40:57;;;;;;;6.35;2.20;;;;;;;;;;4961871;28;20069;-71
2022/02/16 01:43:25;;;;;;;6.00;1.75;;;;;;;;;;4957097;28;20105;-71
2022/02/16 01:45:54;;;;;;;4.22;1.80;;;;;;;;;;4956633;28;20419;-74
2022/02/16 01:48:23;;;;;;;5.13;1.70;;;;;;;;;;4956385;28;20055;-72
2022/02/16 01:50:52;;;;;;;6.40;2.10;;;;;;;;;;4941089;28;20070;-74
2022/02/16 01:53:39;;;;;;;6.05;1.60;;;;;;;;;;4956772;28;20054;-70
2022/02/16 01:56:07;;;;;;;5.90;1.80;;;;;;;;;;4956622;28;20043;-74
2022/02/16 01:58:40;;;;;;;3.95;1.65;;;;;;;;;;4956619;28;20049;-69
2022/02/16 02:01:13;;;;;;;2.05;1.38;;;;;;;;;;4973536;28;20062;-74
2022/02/16 02:03:53;;;;;;;3.83;1.58;;;;;;;;;;4956677;28;20388;-74
2022/02/16 02:06:21;;;;;;;4.70;1.60;;;;;;;;;;4974466;28;20039;-71
2022/02/16 02:08:51;;;;;;;3.65;1.40;;;;;;;;;;4940884;28;20042;-72
2022/02/16 02:11:18;;;;;;;3.13;1.50;;;;;;;;;;4956206;28;20693;-74
2022/02/16 02:13:56;;;;;;;2.83;1.15;;;;;;;;;;4956408;28;20082;-71
2022/02/16 02:16:42;;;;;;;4.20;1.60;;;;;;;;;;4956212;28;20042;-72
2022/02/16 02:19:10;;;;;;;5.07;1.60;;;;;;;;;;4960353;28;20094;-69
2022/02/16 02:21:39;;;;;;;4.28;1.17;;;;;;;;;;4960658;28;20411;-74
2022/02/16 02:24:07;;;;;;;5.25;1.45;;;;;;;;;;4960287;28;20051;-69
2022/02/16 02:26:35;;;;;;;5.57;1.60;;;;;;;;;;4960620;28;20069;-74
2022/02/16 02:29:03;;;;;;;2.20;1.23;;;;;;;;;;4960232;28;20070;-69
2022/02/16 02:31:40;;;;;;;4.25;1.58;;;;;;;;;;4960589;28;20122;-74
2022/02/16 02:34:07;;;;;;;3.05;1.35;;;;;;;;;;4959967;28;20388;-74
2022/02/16 02:36:35;;;;;;;3.70;1.48;;;;;;;;;;4944031;28;20034;-71
2022/02/16 02:39:03;;;;;;;3.63;1.63;;;;;;;;;;4960323;28;20039;-71
2022/02/16 02:41:31;;;;;;;5.68;1.80;;;;;;;;;;4944217;28;20451;-71
2022/02/16 02:43:59;;;;;;;3.08;1.48;;;;;;;;;;4977380;28;20066;-71
2022/02/16 02:46:28;;;;;;;3.10;1.27;;;;;;;;;;4975989;28;20585;-71
2022/02/16 02:48:58;;;;;;;5.38;1.38;;;;;;;;;;4976881;28;20043;-71
2022/02/16 02:51:28;;;;;;;4.07;1.63;;;;;;;;;;4959559;28;20223;-72
2022/02/16 02:53:57;;;;;;;3.20;1.52;;;;;;;;;;4959805;28;20141;-72
2022/02/16 02:56:30;;;;;;;2.58;1.58;;;;;;;;;;4959662;28;20465;-74
2022/02/16 02:58:58;;;;;;;3.95;1.40;;;;;;;;;;4943561;28;20066;-71
2022/02/16 03:01:27;;;;;;;4.43;1.65;;;;;;;;;;4959436;28;20078;-74
2022/02/16 03:03:55;;;;;;;2.33;1.33;;;;;;;;;;4959677;28;20086;-74
2022/02/16 03:06:26;;;;;;;3.28;1.45;;;;;;;;;;4959552;28;20043;-74
2022/02/16 03:08:53;;;;;;;6.22;1.60;;;;;;;;;;4958931;28;20053;-70
2022/02/16 03:11:21;;;;;;;2.85;1.65;;;;;;;;;;4959383;28;20129;-72
2022/02/16 03:13:52;;;;;;;2.33;1.60;;;;;;;;;;4959361;28;20053;-71
2022/02/16 03:16:25;;;;;;;1.58;1.48;;;;;;;;;;4959379;28;20117;-71
2022/02/16 03:18:54;;;;;;;4.20;1.60;;;;;;;;;;4959360;28;20053;-71
2022/02/16 03:21:21;;;;;;;3.35;1.42;;;;;;;;;;4976710;28;20034;-71
2022/02/16 03:23:51;;;;;;;2.17;1.48;;;;;;;;;;4959168;28;20055;-72
2022/02/16 03:26:21;;;;;;;1.98;1.40;;;;;;;;;;4943547;28;20070;-69
2022/02/16 03:28:49;;;;;;;4.32;1.95;;;;;;;;;;4958250;28;20447;-71
2022/02/16 03:31:23;;;;;;;3.38;2.03;;;;;;;;;;4958989;28;20101;-72
2022/02/16 03:33:59;;;;;;;2.10;1.73;;;;;;;;;;4958858;28;20137;-72
2022/02/16 03:36:28;;;;;;;3.85;1.80;;;;;;;;;;4958725;28;20047;-71
2022/02/16 03:38:57;;;;;;;2.47;1.70;;;;;;;;;;4972491;28;20101;-71
2022/02/16 03:41:28;;;;;;;2.92;1.48;;;;;;;;;;4958844;28;20120;-69
2022/02/16 03:43:56;;;;;;;1.98;1.10;;;;;;;;;;4958872;28;20614;-71
2022/02/16 03:46:29;;;;;;;1.90;1.42;;;;;;;;;;4958730;28;20502;-71
2022/02/16 03:48:59;;;;;;;4.35;1.40;;;;;;;;;;4976248;28;20046;-71
2022/02/16 03:51:28;;;;;;;3.28;1.60;;;;;;;;;;4942997;28;20051;-74
2022/02/16 03:54:03;;;;;;;4.32;1.92;;;;;;;;;;4958770;28;20039;-74
2022/02/16 03:56:30;;;;;;;6.70;2.38;;;;;;;;;;4958857;28;20047;-69
2022/02/16 03:58:58;;;;;;;3.20;2.22;;;;;;;;;;4942675;28;20178;-71
2022/02/16 04:01:25;;;;;;;2.95;2.00;;;;;;;;;;4959346;28;20057;-69
2022/02/16 04:03:54;;;;;;;5.82;2.35;;;;;;;;;;4977748;28;20474;-74
2022/02/16 04:06:21;;;;;;;6.43;3.97;;;;;;;;;;4978366;28;20062;-69
2022/02/16 04:08:50;;;;;;;5.82;3.90;;;;;;;;;;4978004;28;20066;-74
2022/02/16 04:11:20;;;;;;;5.97;4.13;;;;;;;;;;4977423;28;20129;-71
2022/02/16 04:13:48;;;;;;;4.50;2.45;;;;;;;;;;4977876;28;20137;-69
2022/02/16 04:16:15;;;;;;;7.13;3.67;;;;;;;;;;4977531;28;20489;-70
2022/02/16 04:18:43;;;;;;;6.28;3.40;;;;;;;;;;4977610;28;20051;-69
2022/02/16 04:21:11;;;;;;;6.30;3.50;;;;;;;;;;4994959;28;20080;-74
2022/02/16 04:23:48;;;;;;;5.50;3.65;;;;;;;;;;4977343;28;20042;-71
2022/02/16 04:26:15;;;;;;;5.07;3.72;;;;;;;;;;4994818;28;20502;-71
2022/02/16 04:28:49;;;;;;;5.57;3.30;;;;;;;;;;4977152;28;20397;-69
2022/02/16 04:31:18;;;;;;;6.15;3.72;;;;;;;;;;4977211;28;20046;-72
2022/02/16 04:33:45;;;;;;;6.43;3.13;;;;;;;;;;4977300;28;20114;-70
2022/02/16 04:36:25;;;;;;;3.50;2.72;;;;;;;;;;4976902;28;20501;-72
2022/02/16 04:38:56;;;;;;;8.98;2.80;;;;;;;;;;4977175;28;20108;-71
2022/02/16 04:41:24;;;;;;;4.05;1.98;;;;;;;;;;4976077;28;20054;-74
2022/02/16 04:43:52;;;;;;;5.35;2.03;;;;;;;;;;4977204;28;20046;-71
2022/02/16 04:46:20;;;;;;;2.55;1.85;;;;;;;;;;4977104;28;20124;-70
2022/02/16 04:48:47;;;;;;;4.10;1.65;;;;;;;;;;4977023;28;20038;-74
2022/02/16 04:51:15;;;;;;;5.25;1.77;;;;;;;;;;4994721;28;20053;-73
2022/02/16 04:53:42;;;;;;;4.57;1.95;;;;;;;;;;4976894;28;20394;-74
2022/02/16 04:56:10;;;;;;;6.18;1.60;;;;;;;;;;4977021;28;20137;-71
2022/02/16 04:58:38;;;;;;;5.93;1.40;;;;;;;;;;4977095;28;20053;-71
2022/02/16 05:01:06;;;;;;;1.90;1.38;;;;;;;;;;4976240;28;20128;-74
2022/02/16 05:03:39;;;;;;;3.47;2.10;;;;;;;;;;4976780;28;20042;-71
2022/02/16 05:06:06;;;;;;;1.45;1.10;;;;;;;;;;4976965;28;20442;-71
2022/02/16 05:08:34;;;;;;;5.20;1.23;;;;;;;;;;4976763;28;20101;-71
2022/02/16 05:11:02;;;;;;;1.85;1.30;;;;;;;;;;4976734;28;20069;-71
2022/02/16 05:13:36;;;;;;;3.40;1.63;;;;;;;;;;4976221;28;20046;-69
2022/02/16 05:16:04;;;;;;;5.68;1.40;;;;;;;;;;4976202;28;20054;-73
2022/02/16 05:18:33;;;;;;;3.63;1.52;;;;;;;;;;4976664;28;20046;-71
2022/02/16 05:21:07;;;;;;;3.35;1.10;;;;;;;;;;4975987;28;20556;-74
2022/02/16 05:23:36;;;;;;;2.83;1.50;;;;;;;;;;4976078;28;20459;-69
2022/02/16 05:26:11;;;;;;;4.75;2.92;;;;;;;;;;4976463;28;20046;-69
2022/02/16 05:28:38;;;;;;;3.40;1.67;;;;;;;;;;4976483;28;20070;-71
2022/02/16 05:31:09;;;;;;;3.65;1.20;;;;;;;;;;4976956;28;20046;-72
2022/02/16 05:33:37;;;;;;;3.33;1.30;;;;;;;;;;4975817;28;20138;-69
2022/02/16 05:36:08;;;;;;;8.30;1.50;;;;;;;;;;4975699;28;20077;-71
2022/02/16 05:38:35;;;;;;;4.75;1.65;;;;;;;;;;4976142;28;20050;-72
2022/02/16 05:41:03;;;;;;;4.00;1.45;;;;;;;;;;4975928;28;20069;-71
2022/02/16 05:43:30;;;;;;;2.72;1.70;;;;;;;;;;4993520;28;20038;-74
2022/02/16 05:45:58;;;;;;;6.95;1.55;;;;;;;;;;4975207;28;20039;-74
2022/02/16 05:48:26;;;;;;;4.90;1.70;;;;;;;;;;4974994;28;20038;-69
2022/02/16 05:50:57;;;;;;;2.75;1.30;;;;;;;;;;4975606;28;20208;-71
2022/02/16 05:53:25;;;;;;;6.10;1.40;;;;;;;;;;4975697;28;20148;-72
2022/02/16 05:55:58;;;;;;;3.83;1.60;;;;;;;;;;4975665;28;20047;-74
2022/02/16 05:58:26;;;;;;;3.97;2.50;;;;;;;;;;4975753;28;20042;-73
2022/02/16 06:00:54;;;;;;;6.28;1.85;;;;;;;;;;4975690;28;20132;-71
2022/02/16 06:03:43;;;;;;;3.45;1.70;;;;;;;;;;4992599;28;20046;-72
2022/02/16 06:06:16;;;;;;;9.82;1.95;;;;;;;;;;4975868;28;20153;-69
2022/02/16 06:08:44;;;;;;;5.95;1.70;;;;;;;;;;4975224;28;20034;-71
2022/02/16 06:11:12;;;;;;;4.38;1.98;;;;;;;;;;4960058;28;20521;-73
2022/02/16 06:13:41;;;;;;;3.90;2.53;;;;;;;;;;4975394;28;20053;-74
2022/02/16 06:16:14;;;;;;;4.70;1.63;;;;;;;;;;4975312;28;20050;-73
2022/02/16 06:18:42;;;;;;;3.53;1.70;;;;;;;;;;4975539;28;20070;-69
2022/02/16 06:21:13;;;;;;;6.00;1.80;;;;;;;;;;4975531;28;20102;-72
2022/02/16 06:23:45;;;;;;;2.88;1.27;;;;;;;;;;4974717;28;20522;-69
2022/02/16 06:26:14;;;;;;;3.50;1.60;;;;;;;;;;4974900;28;20043;-69
2022/02/16 06:28:43;;;;;;;5.20;1.95;;;;;;;;;;4968796;28;20042;-71
2022/02/16 06:31:16;;;;;;;2.50;1.40;;;;;;;;;;4972227;28;20045;-72
2022/02/16 06:33:44;;;;;;;4.38;1.70;;;;;;;;;;4963669;28;20432;-76
2022/02/16 06:36:12;;;;;;;3.95;2.08;;;;;;;;;;4955662;28;20046;-72
2022/02/16 06:38:41;;;;;;;2.33;1.15;;;;;;;;;;4955703;28;20138;-71
2022/02/16 06:41:12;;;;;;;4.63;1.75;;;;;;;;;;4956700;28;20534;-74
2022/02/16 06:43:40;;;;;;;7.13;2.10;;;;;;;;;;4965502;28;20437;-72
2022/02/16 06:46:07;;;;;;;9.88;4.70;;;;;;;;;;4955647;28;20494;-73
2022/02/16 06:48:35;;;;;;;6.47;2.40;;;;;;;;;;4954780;28;20522;-70
2022/02/16 06:51:03;;;;;;;5.70;2.40;;;;;;;;;;4954276;28;20410;-71
2022/02/16 06:53:32;;;;;;;9.65;4.50;;;;;;;;;;4939740;28;20068;-72
2022/02/16 06:56:00;;;;;;;10.32;3.20;;;;;;;;;;4955142;28;20046;-72
2022/02/16 06:58:47;;;;;;;8.27;3.97;;;;;;;;;;4975991;28;20057;-72
2022/02/16 07:01:16;;;;;;;7.05;2.90;;;;;;;;;;4955306;28;20077;-72
2022/02/16 07:03:51;;;;;;;5.68;1.40;;;;;;;;;;4955460;28;20149;-72
2022/02/16 07:06:24;;;;;;;4.78;2.70;;;;;;;;;;4959491;28;20053;-70
2022/02/16 07:08:54;;;;;;;8.52;1.80;;;;;;;;;;4959175;28;20105;-74
2022/02/16 07:11:22;;;;;;;4.05;1.60;;;;;;;;;;4959606;28;20043;-72
2022/02/16 07:13:50;;;;;;;8.77;2.00;;;;;;;;;;4959250;28;20070;-72
2022/02/16 07:16:17;;;;;;;11.82;2.13;;;;;;;;;;4976124;28;20058;-70
2022/02/16 07:18:45;;;;;;;5.82;2.10;;;;;;;;;;4975842;28;20047;-71
2022/02/16 07:21:23;;;;;;;6.53;2.30;;;;;;;;;;4975528;28;20105;-71
2022/02/16 07:23:54;;;;;;;9.18;2.70;;;;;;;;;;4959556;28;20046;-71
2022/02/16 07:26:24;;;;;;;6.68;2.35;;;;;;;;;;4959829;28;20512;-74
2022/02/16 07:28:52;;;;;;;12.07;2.72;;;;;;;;;;4982943;23;20122;-72
2022/02/16 07:31:22;;;;;;;4.93;2.30;;;;;;;;;;4966169;28;20038;-71
2022/02/16 07:33:50;;;;;;;7.65;2.08;;;;;;;;;;4969016;28;20046;-71
2022/02/16 07:36:19;;;;;;;8.15;2.40;;;;;;;;;;4970688;28;20129;-70
2022/02/16 07:38:48;;;;;;;4.95;2.03;;;;;;;;;;4966661;28;20042;-72
2022/02/16 07:41:16;;;;;;;5.35;1.70;;;;;;;;;;4969414;28;20038;-70
2022/02/16 07:44:01;;;;;;;11.45;2.30;;;;;;;;;;4965994;28;20498;-72
2022/02/16 07:46:41;;;;;;;9.23;2.58;;;;;;;;;;4959431;28;20143;-71
2022/02/16 07:49:08;;;;;;;5.80;1.70;;;;;;;;;;4959177;28;20046;-71
2022/02/16 07:52:09;;;;;;;4.82;1.55;;;;;;;;;;4933433;28;20061;-71
2022/02/16 07:54:47;;;;;;;9.10;1.83;;;;;;;;;;4958953;28;20545;-72
2022/02/16 07:57:22;;;;;;;10.25;2.05;;;;;;;;;;4959184;28;20054;-71
2022/02/16 07:59:50;;;;;;;5.65;2.00;;;;;;;;;;4958460;28;20509;-71
2022/02/16 08:02:19;;;;;;;7.78;2.10;;;;;;;;;;4959027;28;20039;-70
2022/02/16 08:04:46;;;;;;;4.60;1.70;;;;;;;;;;4959205;28;20089;-72
2022/02/16 08:07:14;;;;;;;10.00;5.32;;;;;;;;;;4958941;28;20094;-70
2022/02/16 08:09:44;;;;;;;7.18;3.50;;;;;;;;;;4958720;28;20386;-71
2022/02/16 08:12:13;;;;;;;6.38;2.75;;;;;;;;;;4976023;28;20406;-71
2022/02/16 08:14:42;;;;;;;5.82;2.47;;;;;;;;;;4958766;28;20138;-71
2022/02/16 08:17:10;;;;;;;6.13;1.90;;;;;;;;;;4958505;28;20054;-72
2022/02/16 08:19:38;;;;;;;5.22;2.13;;;;;;;;;;4958473;28;20062;-72
2022/02/16 08:22:08;;;;;;;8.73;2.50;;;;;;;;;;4958189;28;20055;-72
2022/02/16 08:24:39;;;;;;;7.53;2.80;;;;;;;;;;4957822;28;20047;-71
2022/02/16 08:27:10;;;;;;;8.20;2.22;;;;;;;;;;4958197;28;20042;-71
2022/02/16 08:29:44;;;;;;;7.15;2.03;;;;;;;;;;4957723;28;20133;-71
2022/02/16 08:32:24;;;;;;;4.47;2.55;;;;;;;;;;4957956;28;20053;-71
2022/02/16 08:35:09;;;;;;;8.38;2.70;;;;;;;;;;4958174;28;20051;-72
2022/02/16 08:37:40;;;;;;;4.53;2.13;;;;;;;;;;4975151;28;20060;-72
2022/02/16 08:40:09;;;;;;;10.88;2.10;;;;;;;;;;4974995;28;20054;-71
2022/02/16 08:43:03;;;;;;;8.30;1.90;;;;;;;;;;4974773;28;20030;-70
2022/02/16 08:45:32;;;;;;;7.22;2.13;;;;;;;;;;4974941;28;20053;-71
2022/02/16 08:48:00;;;;;;;4.80;1.58;;;;;;;;;;4974917;28;20483;-72
2022/02/16 08:50:27;;;;;;;6.55;1.60;;;;;;;;;;4975095;28;20035;-71
2022/02/16 08:52:55;;;;;;;7.43;1.50;;;;;;;;;;4975297;28;20051;-72
2022/02/16 08:55:22;;;;;;;6.40;1.90;;;;;;;;;;4975332;28;20066;-71
2022/02/16 08:57:50;;;;;;;4.18;1.60;;;;;;;;;;4974868;28;20078;-72
2022/02/16 09:00:18;;;;;;;5.95;1.45;;;;;;;;;;4974826;28;20453;-71
2022/02/16 09:02:46;;;;;;;6.70;1.92;;;;;;;;;;4975081;28;20390;-70
2022/02/16 09:05:14;;;;;;;7.90;2.10;;;;;;;;;;4974580;28;20126;-71
2022/02/16 09:07:44;;;;;;;5.53;2.10;;;;;;;;;;4958672;28;20102;-71
2022/02/16 09:10:18;;;;;;;8.25;1.60;;;;;;;;;;4967598;28;20093;-72
2022/02/16 09:12:49;;;;;;;4.57;1.75;;;;;;;;;;4974843;28;20102;-72
2022/02/16 09:15:21;;;;;;;5.45;1.95;;;;;;;;;;4974879;28;20190;-70
2022/02/16 09:17:55;;;;;;;8.38;2.10;;;;;;;;;;4975123;28;20045;-71
2022/02/16 09:20:23;;;;;;;5.65;1.70;;;;;;;;;;4974908;28;20054;-73
2022/02/16 09:22:53;;;;;;;6.07;1.52;;;;;;;;;;4975159;28;20042;-73
2022/02/16 09:25:23;;;;;;;10.15;2.20;;;;;;;;;;4974229;28;20043;-71
2022/02/16 09:27:52;;;;;;;8.40;1.88;;;;;;;;;;4975909;28;20069;-71
2022/02/16 09:30:19;;;;;;;7.45;2.10;;;;;;;;;;4957475;28;20041;-72
2022/02/16 09:32:49;;;;;;;6.30;1.92;;;;;;;;;;4974442;28;20050;-72
2022/02/16 09:35:17;;;;;;;4.38;1.65;;;;;;;;;;4974089;28;20509;-73
2022/02/16 09:37:45;;;;;;;5.75;1.70;;;;;;;;;;4974117;28;20042;-71
2022/02/16 09:40:13;;;;;;;4.95;1.33;;;;;;;;;;4974569;28;20387;-72
2022/02/16 09:42:41;;;;;;;6.93;1.42;;;;;;;;;;4956879;28;20042;-72
2022/02/16 09:45:13;;;;;;;9.63;2.10;;;;;;;;;;4974307;28;20494;-71
2022/02/16 09:47:43;;;;;;;4.18;1.58;;;;;;;;;;4973977;28;20402;-73
2022/02/16 09:50:14;;;;;;;5.38;1.40;;;;;;;;;;4973914;28;20041;-72
2022/02/16 09:52:42;;;;;;;3.70;1.33;;;;;;;;;;4973790;28;20066;-72
2022/02/16 09:55:12;;;;;;;4.72;1.67;;;;;;;;;;4974035;28;20058;-72
2022/02/16 09:57:40;;;;;;;5.88;1.48;;;;;;;;;;4974185;28;20038;-72
2022/02/16 10:00:11;;;;;;;5.07;1.83;;;;;;;;;;4973466;28;20434;-72
2022/02/16 10:02:43;;;;;;;4.78;1.42;;;;;;;;;;4974180;28;20557;-71
2022/02/16 10:05:19;;;;;;;5.65;1.60;;;;;;;;;;4966599;28;20129;-72
2022/02/16 10:07:49;;;;;;;5.38;1.48;;;;;;;;;;4974302;28;20398;-72
2022/02/16 10:10:19;;;;;;;4.28;1.45;;;;;;;;;;4957568;28;20043;-72
2022/02/16 10:12:52;;;;;;;4.22;1.38;;;;;;;;;;4973865;28;20537;-72
2022/02/16 10:15:49;;;;;;;4.83;1.70;;;;;;;;;;4973734;28;20479;-72
2022/02/16 10:18:18;;;;;;;5.45;1.42;;;;;;;;;;4973849;28;20483;-71
2022/02/16 10:20:47;;;;;;;3.85;1.13;;;;;;;;;;4974136;28;20043;-72
2022/02/16 10:23:17;;;;;;;7.78;1.55;;;;;;;;;;4972797;28;20418;-71
2022/02/16 10:25:49;;;;;;;4.35;1.55;;;;;;;;;;4973874;28;20043;-72
2022/02/16 10:28:17;;;;;;;4.75;1.50;;;;;;;;;;4973593;28;20051;-71
2022/02/16 10:31:00;;;;;;;4.18;1.55;;;;;;;;;;4973814;28;20482;-71
2022/02/16 10:33:28;;;;;;;5.65;1.50;;;;;;;;;;4973621;28;20406;-72
2022/02/16 10:36:02;;;;;;;5.50;1.67;;;;;;;;;;4956052;28;20080;-71
2022/02/16 10:38:30;;;;;;;6.18;1.55;;;;;;;;;;4973618;28;20422;-72
2022/02/16 10:41:05;;;;;;;4.65;1.80;;;;;;;;;;4976628;28;20042;-71
2022/02/16 10:43:36;;;;;;;6.32;1.60;;;;;;;;;;4976863;28;20051;-73
2022/02/16 10:46:23;;;;;;;3.57;1.70;;;;;;;;;;4960266;28;20039;-71
2022/02/16 10:49:28;;;;;;;3.33;1.20;;;;;;;;;;4977060;28;20631;-72
2022/02/16 10:52:20;;;;;;;2.20;1.30;;;;;;;;;;4947819;28;20055;-72
2022/02/16 10:54:54;;;;;;;4.35;1.77;;;;;;;;;;4959559;28;20450;-72
2022/02/16 10:57:21;;;;;;;4.85;1.60;;;;;;;;;;4959519;28;20473;-73
2022/02/16 10:59:49;;;;;;;4.65;1.63;;;;;;;;;;4959999;28;20062;-73
2022/02/16 11:02:18;;;;;;;4.03;1.50;;;;;;;;;;4976844;28;20042;-73
2022/02/16 11:04:47;;;;;;;4.70;1.67;;;;;;;;;;4977476;28;20470;-71
2022/02/16 11:07:20;;;;;;;5.57;1.55;;;;;;;;;;4976671;28;20042;-73
2022/02/16 11:09:49;;;;;;;8.25;1.75;;;;;;;;;;4990978;28;20038;-72
2022/02/16 11:12:19;;;;;;;6.43;2.72;;;;;;;;;;4978840;28;20054;-72
2022/02/16 11:14:47;;;;;;;7.55;1.67;;;;;;;;;;4995851;28;20056;-71
2022/02/16 11:17:15;;;;;;;3.08;1.60;;;;;;;;;;4996369;28;20054;-73
2022/02/16 11:19:44;;;;;;;3.97;1.20;;;;;;;;;;4995899;28;20053;-72
2022/02/16 11:22:13;;;;;;;3.70;1.48;;;;;;;;;;4995946;28;20039;-72
2022/02/16 11:24:41;;;;;;;7.13;1.77;;;;;;;;;;4995756;28;20042;-72
2022/02/16 11:27:21;;;;;;;5.50;1.80;;;;;;;;;;4996542;28;20130;-72
2022/02/16 11:29:51;;;;;;;4.45;1.10;;;;;;;;;;4995810;28;20478;-72
2022/02/16 11:32:20;;;;;;;7.50;1.85;;;;;;;;;;4978590;28;20490;-73
2022/02/16 11:35:26;;;;;;;7.20;1.85;;;;;;;;;;4995973;28;20060;-71
2022/02/16 11:38:11;;;;;;;4.75;1.13;;;;;;;;;;4897521;29;20060;-72
2022/02/16 11:41:07;;;;;;;5.63;1.58;;;;;;;;;;4897829;29;20508;-73
2022/02/16 11:43:54;;;;;;;3.03;1.10;;;;;;;;;;4890860;29;20112;-73
2022/02/16 11:46:40;;;;;;;9.25;2.08;;;;;;;;;;4898127;29;20083;-73
2022/02/16 11:49:33;;;;;;;5.50;1.73;;;;;;;;;;4897793;29;20437;-71
2022/02/16 11:52:21;;;;;;;4.07;1.33;;;;;;;;;;4896441;29;20061;-73
2022/02/16 11:54:56;;;;;;;3.78;1.30;;;;;;;;;;4866870;29;20613;-73
2022/02/16 11:57:39;;;;;;;6.97;1.90;;;;;;;;;;4897930;29;20055;-73
2022/02/16 12:00:13;;;;;;;4.05;1.42;;;;;;;;;;4897531;29;20528;-73
2022/02/16 12:05:53;;;;;;;6.05;1.33;;;;;;;;;;4897809;29;20092;-71
2022/02/16 12:08:25;;;;;;;4.63;1.50;;;;;;;;;;4897453;29;20100;-73
2022/02/16 12:10:53;;;;;;;6.93;1.70;;;;;;;;;;4905440;28;20056;-74
2022/02/16 12:13:28;;;;;;;4.88;1.50;;;;;;;;;;4995421;28;20398;-73
2022/02/16 12:16:01;;;;;;;6.22;2.55;;;;;;;;;;4994770;28;20137;-72
2022/02/16 12:18:31;;;;;;;6.32;1.80;;;;;;;;;;4995386;28;20042;-73
2022/02/16 12:21:01;;;;;;;2.85;1.27;;;;;;;;;;4995523;28;20454;-73
2022/02/16 12:23:31;;;;;;;6.75;1.70;;;;;;;;;;4995442;28;20046;-73
2022/02/16 12:26:21;;;;;;;6.25;2.15;;;;;;;;;;4995164;28;20046;-74
2022/02/16 12:28:59;;;;;;;6.03;1.83;;;;;;;;;;4991489;28;20054;-73
2022/02/16 12:31:30;;;;;;;10.77;2.47;;;;;;;;;;4995214;28;20042;-73
2022/02/16 12:34:04;;;;;;;8.32;2.13;;;;;;;;;;4978030;28;20050;-73
2022/02/16 12:36:33;;;;;;;3.67;1.58;;;;;;;;;;4994788;28;20039;-73
2022/02/16 12:39:06;;;;;;;5.75;1.90;;;;;;;;;;4977818;28;20129;-73
2022/02/16 12:41:37;;;;;;;6.10;1.25;;;;;;;;;;4995011;28;20227;-73
2022/02/16 12:44:12;;;;;;;4.88;1.90;;;;;;;;;;4995138;28;20038;-72
2022/02/16 12:46:42;;;;;;;9.27;2.08;;;;;;;;;;4995034;28;20042;-71
2022/02/16 12:49:17;;;;;;;10.48;2.10;;;;;;;;;;4995025;28;20467;-72
2022/02/16 12:51:46;;;;;;;3.35;1.23;;;;;;;;;;4994560;28;20526;-72
2022/02/16 12:54:20;;;;;;;5.85;1.70;;;;;;;;;;4977609;28;20043;-73
2022/02/16 12:56:49;;;;;;;7.35;2.17;;;;;;;;;;4994649;28;20061;-73
2022/02/16 12:59:23;;;;;;;6.55;1.50;;;;;;;;;;4993614;28;20042;-72
2022/02/16 13:01:54;;;;;;;6.45;1.63;;;;;;;;;;4993122;28;20046;-72
2022/02/16 13:04:23;;;;;;;;;;;;;;;;;;4995085;28;20042;-72
2022/02/16 13:06:55;;;;;;;5.85;1.67;;;;;;;;;;4994773;28;19922;-72
2022/02/16 13:09:24;;;;;;;5.78;1.80;;;;;;;;;;4994692;28;20038;-70
2022/02/16 13:11:56;;;;;;;7.72;1.90;;;;;;;;;;4994251;28;20046;-75
2022/02/16 13:14:26;;;;;;;8.90;1.52;;;;;;;;;;4991454;28;20041;-72
2022/02/16 13:17:04;;;;;;;5.07;1.60;;;;;;;;;;4994078;28;20108;-73
2022/02/16 13:19:40;;;;;;;9.35;1.52;;;;;;;;;;4987323;28;20049;-73
2022/02/16 13:22:13;;;;;;;8.68;1.70;;;;;;;;;;4974307;28;20070;-72
2022/02/16 13:24:50;;;;;;;7.05;1.58;;;;;;;;;;4974122;28;20054;-72
2022/02/16 13:27:41;;;;;;;5.03;1.27;;;;;;;;;;4974219;28;20121;-72
2022/02/16 13:30:09;;;;;;;8.85;1.50;;;;;;;;;;4979572;28;20138;-72
2022/02/16 13:32:39;;;;;;;3.95;1.80;;;;;;;;;;4984074;28;20046;-72
2022/02/16 13:35:28;;;;;;;5.90;1.67;;;;;;;;;;4981937;28;20181;-70
2022/02/16 13:38:10;;;;;;;6.80;1.63;;;;;;;;;;4983263;28;20051;-70
2022/02/16 13:40:48;;;;;;;6.68;1.67;;;;;;;;;;4983303;28;20053;-72
2022/02/16 13:43:48;;;;;;;5.22;1.70;;;;;;;;;;4978139;28;20042;-72
2022/02/16 13:46:25;;;;;;;6.47;1.50;;;;;;;;;;4978024;28;20086;-72
2022/02/16 13:49:07;;;;;;;6.82;1.42;;;;;;;;;;4985905;28;20449;-70
2022/02/16 13:51:35;;;;;;;7.35;1.73;;;;;;;;;;4976245;28;20086;-70
2022/02/16 13:54:03;;;;;;;5.80;1.45;;;;;;;;;;4975153;28;20413;-72
2022/02/16 13:56:32;;;;;;;7.35;1.35;;;;;;;;;;4974484;28;20049;-71
2022/02/16 13:59:06;;;;;;;4.07;1.65;;;;;;;;;;4957641;28;20053;-72
2022/02/16 14:01:35;;;;;;;8.02;1.33;;;;;;;;;;4973929;28;20039;-70
2022/02/16 14:04:07;;;;;;;4.47;1.20;;;;;;;;;;4974018;28;20055;-71
2022/02/16 14:06:35;;;;;;;6.20;1.67;;;;;;;;;;4956829;28;20134;-71
2022/02/16 14:09:05;;;;;;;2.95;1.27;;;;;;;;;;4973949;28;20113;-70
2022/02/16 14:11:33;;;;;;;5.47;1.60;;;;;;;;;;4973807;28;20046;-70
2022/02/16 14:14:03;;;;;;;5.32;1.50;;;;;;;;;;4973567;28;20075;-71
2022/02/16 14:16:31;;;;;;;5.70;1.70;;;;;;;;;;4973891;28;20125;-72
2022/02/16 14:21:45;;;;;;;6.20;1.40;;;;;;;;;;4973746;28;20043;-70
2022/02/16 14:24:12;;;;;;;4.10;1.35;;;;;;;;;;4973749;28;20448;-72
2022/02/16 14:26:42;;;;;;;3.75;1.30;;;;;;;;;;4973102;28;20046;-74
2022/02/16 14:29:10;;;;;;;6.95;2.03;;;;;;;;;;4973316;28;20482;-73
2022/02/16 14:31:41;;;;;;;6.22;1.17;;;;;;;;;;4973584;28;20047;-71
2022/02/16 14:34:16;;;;;;;5.95;1.67;;;;;;;;;;4973649;28;20053;-71
2022/02/16 14:36:47;;;;;;;4.10;1.63;;;;;;;;;;4973225;28;20047;-72
2022/02/16 14:39:18;;;;;;;3.17;1.40;;;;;;;;;;4972646;28;20427;-71
2022/02/16 14:41:46;;;;;;;4.30;1.40;;;;;;;;;;4973917;28;20071;-72
2022/02/16 14:44:17;;;;;;;4.50;1.23;;;;;;;;;;4982525;28;20038;-72
2022/02/16 14:46:48;;;;;;;4.43;1.55;;;;;;;;;;4978835;28;20046;-72
2022/02/16 14:49:17;;;;;;;5.57;1.65;;;;;;;;;;4972802;28;20495;-71
2022/02/16 14:51:47;;;;;;;3.83;1.55;;;;;;;;;;4973572;28;20050;-73
2022/02/16 14:54:19;;;;;;;10.02;2.25;;;;;;;;;;4965868;28;20054;-71
2022/02/16 14:56:47;;;;;;;2.20;1.13;;;;;;;;;;4956583;28;20058;-72
2022/02/16 14:59:15;;;;;;;2.05;0.95;;;;;;;;;;4973851;28;20078;-71
2022/02/16 15:01:45;;;;;;;2.92;1.65;;;;;;;;;;4973255;28;20051;-71
2022/02/16 15:04:17;;;;;;;1.95;0.88;;;;;;;;;;4973526;28;20461;-72
2022/02/16 15:06:48;;;;;;;;;;;;;;;;;;4974094;28;20453;-72
2022/02/16 15:09:20;;;;;;;3.40;1.15;;;;;;;;;;4973296;28;19921;-71
2022/02/16 15:11:48;;;;;;;3.55;1.67;;;;;;;;;;4973373;28;20122;-72
2022/02/16 15:14:16;;;;;;;2.85;1.08;;;;;;;;;;4973428;28;20405;-72